createdAt,value
2023-01-13T00:00:26.911Z,984.17
2023-01-13T00:01:26.856Z,984.10
2023-01-13T00:02:26.863Z,984.12
2023-01-13T00:03:26.830Z,984.13
2023-01-13T00:04:26.889Z,984.15
2023-01-13T00:05:26.816Z,984.22
2023-01-13T00:06:26.840Z,984.13
2023-01-13T00:07:26.804Z,984.07
2023-01-13T00:08:26.803Z,984.11
2023-01-13T00:09:26.813Z,984.13
2023-01-13T00:10:26.789Z,984.10
2023-01-13T00:11:26.777Z,984.03
2023-01-13T00:12:26.765Z,983.96
2023-01-13T00:13:26.811Z,984.10
2023-01-13T00:14:26.776Z,983.98
2023-01-13T00:15:26.739Z,983.91
2023-01-13T00:16:26.731Z,983.92
2023-01-13T00:17:26.720Z,983.96
2023-01-13T00:18:26.716Z,984.06
2023-01-13T00:19:26.733Z,983.98
2023-01-13T00:20:26.696Z,983.99
2023-01-13T00:21:26.698Z,984.02
2023-01-13T00:22:26.689Z,984.01
2023-01-13T00:23:26.681Z,983.96
2023-01-13T00:24:26.695Z,984.01
2023-01-13T00:25:26.664Z,983.89
2023-01-13T00:26:26.662Z,984.00
2023-01-13T00:27:26.647Z,983.99
2023-01-13T00:28:26.634Z,983.99
2023-01-13T00:29:26.676Z,983.95
2023-01-13T00:30:26.624Z,984.04
2023-01-13T00:31:26.662Z,983.91
2023-01-13T00:32:26.621Z,983.97
2023-01-13T00:33:26.596Z,983.93
2023-01-13T00:34:26.624Z,983.96
2023-01-13T00:35:26.704Z,983.95
2023-01-13T00:36:26.571Z,983.90
2023-01-13T00:37:26.564Z,983.96
2023-01-13T00:38:26.556Z,983.89
2023-01-13T00:39:26.574Z,983.92
2023-01-13T00:40:26.541Z,983.87
2023-01-13T00:41:26.547Z,983.80
2023-01-13T00:42:26.521Z,983.90
2023-01-13T00:43:26.521Z,983.82
2023-01-13T00:44:26.522Z,983.89
2023-01-13T00:45:26.497Z,983.88
2023-01-13T00:46:26.537Z,983.86
2023-01-13T00:47:26.487Z,983.92
2023-01-13T00:48:26.473Z,983.86
2023-01-13T00:49:26.494Z,983.87
2023-01-13T00:50:26.459Z,983.77
2023-01-13T00:51:26.459Z,983.81
2023-01-13T00:52:26.440Z,983.74
2023-01-13T00:53:26.437Z,983.77
2023-01-13T00:54:26.452Z,983.78
2023-01-13T00:55:26.417Z,983.82
2023-01-13T00:56:39.572Z,983.82
2023-01-13T00:57:28.406Z,983.80
2023-01-13T00:58:26.394Z,983.80
2023-01-13T00:59:26.422Z,983.86
2023-01-13T01:00:26.381Z,983.79
2023-01-13T01:01:26.493Z,983.81
2023-01-13T01:02:26.412Z,983.81
2023-01-13T01:03:26.354Z,983.74
2023-01-13T01:04:26.386Z,983.79
2023-01-13T01:05:26.372Z,983.75
2023-01-13T01:06:26.329Z,983.74
2023-01-13T01:07:26.324Z,983.76
2023-01-13T01:08:26.315Z,983.81
2023-01-13T01:09:26.334Z,983.67
2023-01-13T01:10:26.308Z,983.75
2023-01-13T01:11:26.301Z,983.77
2023-01-13T01:12:26.281Z,983.71
2023-01-13T01:13:26.274Z,983.70
2023-01-13T01:14:26.296Z,983.69
2023-01-13T01:15:26.258Z,983.67
2023-01-13T01:16:26.391Z,983.70
2023-01-13T01:17:26.250Z,983.64
2023-01-13T01:18:26.235Z,983.67
2023-01-13T01:19:26.253Z,983.67
2023-01-13T01:20:26.243Z,983.67
2023-01-13T01:21:26.208Z,983.69
2023-01-13T01:22:26.202Z,983.62
2023-01-13T01:23:26.203Z,983.68
2023-01-13T01:24:26.191Z,983.64
2023-01-13T01:25:26.208Z,983.58
2023-01-13T01:26:26.169Z,983.64
2023-01-13T01:27:26.167Z,983.69
2023-01-13T01:28:26.148Z,983.58
2023-01-13T01:29:26.162Z,983.70
2023-01-13T01:30:26.179Z,983.70
2023-01-13T01:31:26.229Z,983.67
2023-01-13T01:32:26.122Z,983.64
2023-01-13T01:33:26.114Z,983.61
2023-01-13T01:34:26.112Z,983.60
2023-01-13T01:35:26.130Z,983.60
2023-01-13T01:36:26.089Z,983.56
2023-01-13T01:37:26.083Z,983.63
2023-01-13T01:38:26.074Z,983.64
2023-01-13T01:39:26.085Z,983.63
2023-01-13T01:40:26.087Z,983.62
2023-01-13T01:41:26.053Z,983.67
2023-01-13T01:42:26.049Z,983.61
2023-01-13T01:43:26.041Z,983.66
2023-01-13T01:44:26.027Z,983.70
2023-01-13T01:45:26.041Z,983.60
2023-01-13T01:46:26.028Z,983.66
2023-01-13T01:47:26.009Z,983.61
2023-01-13T01:48:26.007Z,983.57
2023-01-13T01:49:26.001Z,983.51
2023-01-13T01:50:26.016Z,983.54
2023-01-13T01:51:25.979Z,983.52
2023-01-13T01:52:25.966Z,983.48
2023-01-13T01:53:25.959Z,983.57
2023-01-13T01:54:25.957Z,983.52
2023-01-13T01:55:25.967Z,983.50
2023-01-13T01:56:25.937Z,983.53
2023-01-13T01:57:25.929Z,983.53
2023-01-13T01:58:25.927Z,983.49
2023-01-13T01:59:25.919Z,983.47
2023-01-13T02:00:25.941Z,983.49
2023-01-13T02:01:26.026Z,983.45
2023-01-13T02:02:25.909Z,983.43
2023-01-13T02:03:25.882Z,983.44
2023-01-13T02:04:25.876Z,983.38
2023-01-13T02:05:25.905Z,983.32
2023-01-13T02:06:25.858Z,983.46
2023-01-13T02:07:25.850Z,983.37
2023-01-13T02:08:25.847Z,983.42
2023-01-13T02:09:25.844Z,983.36
2023-01-13T02:10:25.861Z,983.38
2023-01-13T02:11:25.820Z,983.32
2023-01-13T02:12:25.813Z,983.38
2023-01-13T02:13:25.799Z,983.38
2023-01-13T02:14:25.800Z,983.35
2023-01-13T02:15:25.816Z,983.27
2023-01-13T02:16:25.806Z,983.32
2023-01-13T02:17:25.793Z,983.41
2023-01-13T02:18:25.767Z,983.37
2023-01-13T02:19:25.753Z,983.32
2023-01-13T02:20:25.797Z,983.28
2023-01-13T02:21:25.745Z,983.22
2023-01-13T02:22:25.741Z,983.26
2023-01-13T02:23:25.727Z,983.22
2023-01-13T02:24:25.722Z,983.17
2023-01-13T02:25:25.745Z,983.20
2023-01-13T02:26:25.714Z,983.17
2023-01-13T02:27:25.689Z,983.15
2023-01-13T02:28:25.693Z,983.16
2023-01-13T02:29:25.676Z,983.19
2023-01-13T02:30:25.698Z,983.23
2023-01-13T02:31:25.671Z,983.14
2023-01-13T02:32:25.660Z,983.19
2023-01-13T02:33:25.658Z,983.14
2023-01-13T02:34:25.650Z,983.13
2023-01-13T02:35:25.655Z,983.05
2023-01-13T02:36:25.636Z,983.16
2023-01-13T02:37:25.614Z,983.13
2023-01-13T02:38:25.608Z,983.14
2023-01-13T02:39:25.599Z,983.12
2023-01-13T02:40:25.633Z,983.19
2023-01-13T02:41:25.586Z,983.09
2023-01-13T02:42:25.585Z,983.16
2023-01-13T02:43:25.565Z,983.16
2023-01-13T02:44:25.561Z,983.19
2023-01-13T02:45:25.622Z,983.15
2023-01-13T02:46:25.538Z,983.17
2023-01-13T02:47:25.532Z,983.20
2023-01-13T02:48:25.535Z,983.09
2023-01-13T02:49:25.527Z,983.17
2023-01-13T02:50:25.528Z,983.14
2023-01-13T02:51:25.527Z,983.17
2023-01-13T02:52:25.496Z,983.15
2023-01-13T02:53:25.490Z,983.20
2023-01-13T02:54:25.479Z,983.21
2023-01-13T02:55:25.480Z,983.09
2023-01-13T02:56:25.495Z,983.10
2023-01-13T02:57:25.462Z,983.07
2023-01-13T02:58:25.455Z,982.99
2023-01-13T02:59:25.383Z,983.07
2023-01-13T03:00:27.157Z,983.08
2023-01-13T03:01:25.475Z,983.08
2023-01-13T03:02:25.359Z,983.02
2023-01-13T03:03:25.309Z,982.99
2023-01-13T03:04:25.305Z,983.02
2023-01-13T03:05:25.294Z,983.12
2023-01-13T03:06:25.302Z,982.86
2023-01-13T03:07:26.286Z,983.00
2023-01-13T03:08:25.277Z,983.04
2023-01-13T03:09:25.267Z,983.01
2023-01-13T03:10:25.265Z,982.99
2023-01-13T03:11:25.274Z,982.95
2023-01-13T03:12:25.240Z,983.01
2023-01-13T03:13:25.231Z,983.09
2023-01-13T03:14:25.245Z,983.05
2023-01-13T03:15:25.210Z,983.00
2023-01-13T03:16:25.240Z,982.97
2023-01-13T03:17:25.200Z,983.04
2023-01-13T03:18:25.193Z,983.01
2023-01-13T03:19:25.186Z,982.91
2023-01-13T03:20:25.251Z,982.92
2023-01-13T03:21:25.187Z,982.99
2023-01-13T03:22:25.159Z,982.91
2023-01-13T03:23:25.151Z,982.89
2023-01-13T03:24:25.141Z,982.90
2023-01-13T03:25:25.147Z,982.96
2023-01-13T03:26:25.151Z,982.82
2023-01-13T03:27:25.119Z,982.90
2023-01-13T03:28:25.111Z,982.79
2023-01-13T03:29:25.113Z,982.85
2023-01-13T03:30:25.130Z,982.84
2023-01-13T03:31:25.112Z,982.77
2023-01-13T03:32:25.083Z,982.75
2023-01-13T03:33:25.072Z,982.70
2023-01-13T03:34:25.066Z,982.74
2023-01-13T03:35:25.063Z,982.71
2023-01-13T03:36:25.080Z,982.77
2023-01-13T03:37:25.039Z,982.63
2023-01-13T03:38:25.037Z,982.73
2023-01-13T03:39:25.025Z,982.68
2023-01-13T03:40:25.019Z,982.71
2023-01-13T03:41:25.040Z,982.69
2023-01-13T03:42:25.012Z,982.72
2023-01-13T03:43:24.996Z,982.70
2023-01-13T03:44:24.996Z,982.61
2023-01-13T03:45:24.981Z,982.58
2023-01-13T03:46:25.045Z,982.56
2023-01-13T03:47:24.964Z,982.62
2023-01-13T03:48:24.956Z,982.60
2023-01-13T03:49:24.949Z,982.62
2023-01-13T03:50:24.943Z,982.50
2023-01-13T03:51:24.936Z,982.53
2023-01-13T03:52:24.953Z,982.58
2023-01-13T03:53:24.919Z,982.58
2023-01-13T03:54:24.916Z,982.56
2023-01-13T03:55:24.907Z,982.57
2023-01-13T03:56:24.899Z,982.52
2023-01-13T03:57:24.922Z,982.50
2023-01-13T03:58:24.883Z,982.45
2023-01-13T03:59:24.872Z,982.50
2023-01-13T04:00:24.863Z,982.50
2023-01-13T04:01:25.917Z,982.47
2023-01-13T04:02:24.878Z,982.50
2023-01-13T04:03:24.871Z,982.49
2023-01-13T04:04:24.837Z,982.56
2023-01-13T04:05:24.835Z,982.52
2023-01-13T04:06:24.821Z,982.57
2023-01-13T04:07:24.843Z,982.55
2023-01-13T04:08:24.807Z,982.56
2023-01-13T04:09:24.802Z,982.51
2023-01-13T04:10:24.807Z,982.62
2023-01-13T04:11:24.790Z,982.47
2023-01-13T04:12:24.802Z,982.54
2023-01-13T04:13:24.771Z,982.56
2023-01-13T04:14:24.759Z,982.54
2023-01-13T04:15:24.771Z,982.55
2023-01-13T04:16:24.748Z,982.50
2023-01-13T04:17:24.782Z,982.53
2023-01-13T04:18:24.730Z,982.56
2023-01-13T04:19:24.719Z,982.53
2023-01-13T04:20:24.705Z,982.57
2023-01-13T04:21:25.710Z,982.52
2023-01-13T04:22:24.751Z,982.49
2023-01-13T04:23:24.699Z,982.50
2023-01-13T04:24:24.683Z,982.53
2023-01-13T04:25:24.680Z,982.71
2023-01-13T04:26:24.667Z,983.13
2023-01-13T04:27:24.656Z,983.42
2023-01-13T04:28:24.673Z,983.32
2023-01-13T04:29:24.640Z,983.40
2023-01-13T04:30:24.637Z,983.44
2023-01-13T04:31:24.689Z,983.42
2023-01-13T04:32:24.620Z,983.51
2023-01-13T04:33:24.633Z,983.39
2023-01-13T04:34:26.345Z,983.35
2023-01-13T04:35:24.601Z,983.44
2023-01-13T04:36:24.587Z,983.42
2023-01-13T04:37:24.592Z,983.40
2023-01-13T04:38:24.597Z,983.49
2023-01-13T04:39:24.570Z,983.49
2023-01-13T04:40:24.553Z,983.47
2023-01-13T04:41:24.551Z,983.41
2023-01-13T04:42:24.549Z,983.45
2023-01-13T04:43:24.562Z,983.43
2023-01-13T04:44:24.527Z,983.56
2023-01-13T04:45:24.524Z,983.45
2023-01-13T04:46:24.542Z,983.51
2023-01-13T04:47:24.516Z,983.52
2023-01-13T04:48:24.526Z,983.58
2023-01-13T04:49:24.492Z,983.55
2023-01-13T04:50:24.478Z,983.63
2023-01-13T04:51:24.476Z,983.58
2023-01-13T04:52:24.467Z,983.51
2023-01-13T04:53:24.481Z,983.58
2023-01-13T04:54:24.450Z,983.58
2023-01-13T04:55:24.453Z,983.57
2023-01-13T04:56:24.433Z,983.56
2023-01-13T04:57:24.423Z,983.53
2023-01-13T04:58:24.464Z,983.50
2023-01-13T04:59:24.415Z,983.51
2023-01-13T05:00:24.405Z,983.45
2023-01-13T05:01:24.507Z,983.41
2023-01-13T05:02:24.413Z,983.44
2023-01-13T05:03:24.416Z,983.45
2023-01-13T05:04:24.392Z,983.48
2023-01-13T05:05:24.359Z,983.41
2023-01-13T05:06:24.355Z,983.44
2023-01-13T05:07:24.348Z,983.43
2023-01-13T05:08:24.365Z,983.37
2023-01-13T05:09:24.335Z,983.36
2023-01-13T05:10:24.347Z,983.40
2023-01-13T05:11:24.313Z,983.32
2023-01-13T05:12:24.303Z,983.39
2023-01-13T05:13:24.323Z,983.38
2023-01-13T05:14:24.293Z,983.42
2023-01-13T05:15:24.281Z,983.46
2023-01-13T05:16:24.305Z,983.44
2023-01-13T05:17:24.299Z,983.46
2023-01-13T05:18:24.259Z,983.47
2023-01-13T05:19:24.276Z,983.58
2023-01-13T05:20:24.248Z,983.58
2023-01-13T05:21:24.233Z,983.57
2023-01-13T05:22:24.230Z,983.56
2023-01-13T05:23:24.224Z,983.47
2023-01-13T05:24:24.238Z,983.45
2023-01-13T05:25:24.211Z,983.30
2023-01-13T05:26:24.193Z,983.19
2023-01-13T05:27:24.200Z,983.24
2023-01-13T05:28:24.187Z,983.25
2023-01-13T05:29:24.207Z,983.22
2023-01-13T05:30:24.162Z,983.23
2023-01-13T05:31:24.179Z,983.22
2023-01-13T05:32:24.148Z,983.32
2023-01-13T05:33:24.149Z,983.44
2023-01-13T05:34:24.156Z,983.52
2023-01-13T05:35:24.121Z,983.64
2023-01-13T05:36:24.115Z,983.72
2023-01-13T05:37:24.102Z,983.78
2023-01-13T05:38:24.095Z,983.76
2023-01-13T05:39:24.122Z,983.88
2023-01-13T05:40:24.087Z,983.87
2023-01-13T05:41:24.070Z,983.93
2023-01-13T05:42:24.066Z,983.99
2023-01-13T05:43:24.055Z,983.93
2023-01-13T05:44:24.073Z,983.94
2023-01-13T05:45:24.041Z,984.07
2023-01-13T05:46:24.108Z,983.98
2023-01-13T05:47:24.021Z,983.94
2023-01-13T05:48:24.019Z,983.94
2023-01-13T05:49:24.036Z,984.00
2023-01-13T05:50:23.998Z,984.01
2023-01-13T05:51:23.991Z,984.04
2023-01-13T05:52:23.983Z,984.11
2023-01-13T05:53:23.983Z,984.11
2023-01-13T05:54:24.000Z,984.02
2023-01-13T05:55:23.964Z,983.92
2023-01-13T05:56:23.960Z,984.13
2023-01-13T05:57:23.957Z,984.02
2023-01-13T05:58:23.939Z,983.96
2023-01-13T05:59:23.931Z,983.79
2023-01-13T06:00:23.947Z,983.78
2023-01-13T06:01:23.936Z,983.73
2023-01-13T06:02:23.909Z,983.81
2023-01-13T06:03:23.899Z,983.74
2023-01-13T06:04:23.931Z,983.77
2023-01-13T06:05:23.911Z,983.78
2023-01-13T06:06:23.882Z,983.78
2023-01-13T06:07:23.866Z,983.81
2023-01-13T06:08:23.864Z,983.66
2023-01-13T06:09:23.860Z,983.56
2023-01-13T06:10:23.872Z,983.56
2023-01-13T06:11:23.836Z,983.79
2023-01-13T06:12:23.830Z,983.75
2023-01-13T06:13:23.823Z,983.79
2023-01-13T06:14:23.812Z,983.86
2023-01-13T06:15:23.828Z,984.03
2023-01-13T06:16:23.849Z,984.10
2023-01-13T06:17:23.796Z,984.13
2023-01-13T06:18:23.786Z,984.19
2023-01-13T06:19:23.772Z,984.14
2023-01-13T06:20:23.790Z,984.07
2023-01-13T06:21:23.754Z,984.07
2023-01-13T06:22:23.748Z,983.90
2023-01-13T06:23:23.756Z,983.77
2023-01-13T06:24:23.734Z,983.64
2023-01-13T06:25:23.755Z,983.73
2023-01-13T06:26:23.719Z,983.82
2023-01-13T06:27:23.709Z,983.90
2023-01-13T06:28:23.718Z,983.96
2023-01-13T06:29:23.699Z,983.92
2023-01-13T06:30:23.733Z,983.86
2023-01-13T06:31:23.719Z,983.88
2023-01-13T06:32:23.677Z,983.89
2023-01-13T06:33:23.669Z,983.85
2023-01-13T06:34:23.657Z,983.83
2023-01-13T06:35:23.677Z,983.78
2023-01-13T06:36:23.661Z,983.72
2023-01-13T06:37:23.645Z,983.69
2023-01-13T06:38:23.636Z,983.66
2023-01-13T06:39:23.641Z,983.74
2023-01-13T06:40:23.623Z,983.79
2023-01-13T06:41:23.640Z,983.74
2023-01-13T06:42:23.598Z,983.66
2023-01-13T06:43:23.598Z,983.60
2023-01-13T06:44:23.586Z,983.64
2023-01-13T06:45:23.586Z,983.73
2023-01-13T06:46:23.620Z,983.69
2023-01-13T06:47:23.565Z,983.71
2023-01-13T06:48:23.574Z,983.70
2023-01-13T06:49:23.554Z,983.63
2023-01-13T06:50:23.548Z,983.70
2023-01-13T06:51:23.560Z,983.69
2023-01-13T06:52:23.552Z,983.75
2023-01-13T06:53:23.524Z,983.78
2023-01-13T06:54:23.513Z,983.76
2023-01-13T06:55:23.506Z,983.75
2023-01-13T06:56:23.527Z,983.91
2023-01-13T06:57:23.496Z,983.97
2023-01-13T06:58:23.491Z,984.11
2023-01-13T06:59:23.474Z,984.16
2023-01-13T07:00:23.478Z,984.09
2023-01-13T07:01:23.581Z,984.00
2023-01-13T07:02:23.576Z,983.95
2023-01-13T07:03:23.442Z,983.88
2023-01-13T07:04:23.433Z,983.78
2023-01-13T07:05:23.423Z,983.75
2023-01-13T07:06:23.443Z,983.71
2023-01-13T07:07:23.417Z,983.68
2023-01-13T07:08:23.403Z,983.70
2023-01-13T07:09:23.406Z,983.76
2023-01-13T07:10:23.380Z,983.82
2023-01-13T07:11:23.420Z,983.82
2023-01-13T07:12:23.370Z,983.83
2023-01-13T07:13:23.361Z,983.83
2023-01-13T07:14:23.351Z,983.88
2023-01-13T07:15:24.350Z,983.81
2023-01-13T07:16:23.431Z,983.75
2023-01-13T07:17:23.330Z,983.72
2023-01-13T07:18:23.329Z,983.69
2023-01-13T07:19:23.344Z,983.77
2023-01-13T07:20:23.304Z,983.74
2023-01-13T07:21:23.375Z,983.73
2023-01-13T07:22:23.330Z,983.75
2023-01-13T07:23:23.287Z,983.71
2023-01-13T07:24:23.281Z,983.70
2023-01-13T07:25:23.277Z,983.78
2023-01-13T07:26:23.297Z,983.86
2023-01-13T07:27:23.249Z,983.81
2023-01-13T07:28:23.247Z,983.73
2023-01-13T07:29:23.245Z,983.69
2023-01-13T07:30:23.231Z,983.79
2023-01-13T07:31:23.319Z,983.97
2023-01-13T07:32:23.215Z,983.95
2023-01-13T07:33:23.206Z,984.00
2023-01-13T07:34:23.209Z,983.94
2023-01-13T07:35:23.191Z,984.03
2023-01-13T07:36:23.207Z,984.12
2023-01-13T07:37:23.175Z,984.19
2023-01-13T07:38:23.182Z,984.22
2023-01-13T07:39:23.164Z,984.26
2023-01-13T07:40:23.165Z,984.20
2023-01-13T07:41:23.196Z,984.21
2023-01-13T07:42:23.141Z,984.24
2023-01-13T07:43:23.133Z,984.28
2023-01-13T07:44:23.172Z,984.38
2023-01-13T07:45:23.115Z,984.27
2023-01-13T07:46:23.107Z,984.34
2023-01-13T07:47:23.140Z,984.29
2023-01-13T07:48:23.100Z,984.27
2023-01-13T07:49:23.081Z,984.34
2023-01-13T07:50:23.078Z,984.27
2023-01-13T07:51:23.068Z,984.27
2023-01-13T07:52:23.081Z,984.24
2023-01-13T07:53:23.051Z,984.33
2023-01-13T07:54:35.195Z,984.28
2023-01-13T07:55:25.032Z,984.20
2023-01-13T07:56:23.024Z,984.28
2023-01-13T07:57:23.050Z,984.25
2023-01-13T07:58:23.021Z,984.26
2023-01-13T07:59:23.005Z,984.22
2023-01-13T08:00:23.009Z,984.25
2023-01-13T08:01:23.092Z,984.22
2023-01-13T08:02:23.269Z,984.25
2023-01-13T08:03:23.004Z,984.26
2023-01-13T08:04:22.978Z,984.21
2023-01-13T08:05:22.960Z,984.17
2023-01-13T08:06:22.973Z,984.13
2023-01-13T08:07:22.974Z,984.16
2023-01-13T08:08:22.956Z,984.12
2023-01-13T08:09:22.944Z,984.24
2023-01-13T08:10:22.928Z,984.26
2023-01-13T08:11:23.746Z,984.33
2023-01-13T08:12:23.940Z,984.41
2023-01-13T08:13:22.903Z,984.39
2023-01-13T08:14:22.894Z,984.45
2023-01-13T08:15:22.890Z,984.41
2023-01-13T08:16:22.899Z,984.45
2023-01-13T08:17:22.911Z,984.47
2023-01-13T08:18:22.863Z,984.44
2023-01-13T08:19:22.855Z,984.52
2023-01-13T08:20:22.846Z,984.45
2023-01-13T08:21:22.840Z,984.45
2023-01-13T08:22:22.842Z,984.44
2023-01-13T08:23:22.852Z,984.48
2023-01-13T08:24:22.827Z,984.50
2023-01-13T08:25:22.818Z,984.48
2023-01-13T08:26:22.801Z,984.50
2023-01-13T08:27:22.793Z,984.43
2023-01-13T08:28:22.824Z,984.44
2023-01-13T08:29:22.790Z,984.46
2023-01-13T08:30:22.767Z,984.41
2023-01-13T08:31:22.824Z,984.47
2023-01-13T08:32:22.754Z,984.49
2023-01-13T08:33:22.769Z,984.48
2023-01-13T08:34:22.736Z,984.48
2023-01-13T08:35:22.732Z,984.52
2023-01-13T08:36:22.728Z,984.51
2023-01-13T08:37:22.720Z,984.46
2023-01-13T08:38:22.731Z,984.48
2023-01-13T08:39:22.696Z,984.48
2023-01-13T08:40:22.704Z,984.47
2023-01-13T08:41:22.694Z,984.52
2023-01-13T08:42:22.675Z,984.50
2023-01-13T08:43:22.707Z,984.49
2023-01-13T08:44:23.674Z,984.56
2023-01-13T08:45:22.655Z,984.57
2023-01-13T08:46:22.708Z,984.57
2023-01-13T08:47:22.635Z,984.49
2023-01-13T08:48:22.659Z,984.52
2023-01-13T08:49:22.631Z,984.53
2023-01-13T08:50:22.615Z,984.66
2023-01-13T08:51:22.611Z,984.67
2023-01-13T08:52:22.606Z,984.65
2023-01-13T08:53:22.621Z,984.61
2023-01-13T08:54:22.611Z,984.55
2023-01-13T08:55:22.591Z,984.58
2023-01-13T08:56:22.571Z,984.63
2023-01-13T08:57:22.601Z,984.58
2023-01-13T08:58:22.580Z,984.59
2023-01-13T08:59:22.550Z,984.65
2023-01-13T09:00:22.532Z,984.59
2023-01-13T09:01:22.660Z,984.60
2023-01-13T09:02:22.545Z,984.57
2023-01-13T09:03:22.531Z,984.59
2023-01-13T09:04:23.595Z,984.66
2023-01-13T09:05:22.499Z,984.62
2023-01-13T09:06:22.507Z,984.60
2023-01-13T09:07:22.484Z,984.64
2023-01-13T09:08:22.504Z,984.64
2023-01-13T09:09:22.470Z,984.66
2023-01-13T09:10:22.465Z,984.66
2023-01-13T09:11:22.459Z,984.62
2023-01-13T09:12:22.449Z,984.67
2023-01-13T09:13:22.466Z,984.70
2023-01-13T09:14:22.435Z,984.73
2023-01-13T09:15:22.439Z,984.69
2023-01-13T09:16:22.423Z,984.79
2023-01-13T09:17:22.409Z,984.84
2023-01-13T09:18:22.435Z,984.81
2023-01-13T09:19:22.432Z,984.87
2023-01-13T09:20:22.404Z,984.81
2023-01-13T09:21:22.388Z,984.89
2023-01-13T09:22:22.368Z,984.85
2023-01-13T09:23:22.396Z,984.91
2023-01-13T09:24:22.355Z,984.88
2023-01-13T09:25:22.355Z,984.84
2023-01-13T09:26:22.345Z,984.81
2023-01-13T09:27:22.331Z,984.89
2023-01-13T09:28:22.324Z,984.92
2023-01-13T09:29:22.342Z,984.89
2023-01-13T09:30:22.316Z,984.87
2023-01-13T09:31:22.322Z,984.95
2023-01-13T09:32:22.299Z,984.96
2023-01-13T09:33:22.298Z,984.94
2023-01-13T09:34:22.309Z,985.03
2023-01-13T09:35:22.297Z,985.04
2023-01-13T09:36:22.264Z,984.99
2023-01-13T09:37:22.251Z,984.96
2023-01-13T09:38:22.251Z,984.99
2023-01-13T09:39:22.263Z,985.01
2023-01-13T09:40:22.289Z,985.01
2023-01-13T09:41:22.241Z,985.00
2023-01-13T09:42:22.214Z,984.93
2023-01-13T09:43:22.213Z,984.99
2023-01-13T09:44:22.230Z,985.01
2023-01-13T09:45:22.209Z,984.97
2023-01-13T09:46:22.239Z,984.93
2023-01-13T09:47:22.171Z,984.97
2023-01-13T09:48:23.167Z,984.94
2023-01-13T09:49:22.228Z,984.90
2023-01-13T09:50:22.163Z,984.96
2023-01-13T09:51:22.239Z,984.92
2023-01-13T09:52:22.156Z,985.02
2023-01-13T09:53:22.130Z,984.99
2023-01-13T09:54:22.160Z,984.90
2023-01-13T09:55:22.127Z,985.04
2023-01-13T09:56:22.190Z,985.03
2023-01-13T09:57:22.107Z,985.01
2023-01-13T09:58:22.097Z,984.98
2023-01-13T09:59:22.112Z,984.94
2023-01-13T10:00:23.097Z,985.04
2023-01-13T10:01:22.156Z,984.94
2023-01-13T10:02:22.067Z,984.94
2023-01-13T10:03:22.142Z,984.94
2023-01-13T10:04:22.131Z,984.97
2023-01-13T10:05:22.052Z,984.97
2023-01-13T10:06:22.037Z,984.96
2023-01-13T10:07:24.801Z,984.99
2023-01-13T10:08:22.024Z,984.94
2023-01-13T10:09:22.044Z,984.96
2023-01-13T10:10:22.007Z,985.00
2023-01-13T10:11:21.990Z,985.04
2023-01-13T10:12:22.986Z,985.05
2023-01-13T10:13:21.982Z,984.98
2023-01-13T10:14:22.001Z,984.99
2023-01-13T10:15:21.969Z,985.05
2023-01-13T10:16:22.020Z,984.99
2023-01-13T10:17:21.953Z,985.00
2023-01-13T10:18:21.948Z,984.89
2023-01-13T10:19:21.936Z,984.96
2023-01-13T10:20:21.956Z,984.92
2023-01-13T10:21:21.924Z,984.92
2023-01-13T10:22:21.916Z,984.89
2023-01-13T10:23:21.920Z,984.98
2023-01-13T10:24:21.935Z,984.97
2023-01-13T10:25:21.911Z,984.89
2023-01-13T10:26:21.901Z,984.89
2023-01-13T10:27:21.881Z,984.96
2023-01-13T10:28:21.866Z,984.92
2023-01-13T10:29:21.870Z,985.01
2023-01-13T10:30:21.920Z,985.07
2023-01-13T10:31:21.892Z,984.99
2023-01-13T10:32:21.836Z,985.06
2023-01-13T10:33:21.832Z,985.14
2023-01-13T10:34:21.837Z,985.21
2023-01-13T10:35:21.836Z,985.22
2023-01-13T10:36:21.813Z,985.17
2023-01-13T10:37:21.801Z,985.19
2023-01-13T10:38:21.826Z,985.24
2023-01-13T10:39:21.793Z,985.30
2023-01-13T10:40:21.802Z,985.26
2023-01-13T10:41:21.764Z,985.23
2023-01-13T10:42:21.759Z,985.27
2023-01-13T10:43:21.759Z,985.23
2023-01-13T10:44:21.746Z,985.24
2023-01-13T10:45:21.777Z,985.25
2023-01-13T10:46:21.775Z,985.27
2023-01-13T10:47:21.724Z,985.24
2023-01-13T10:48:21.715Z,985.30
2023-01-13T10:49:21.706Z,985.27
2023-01-13T10:50:21.725Z,985.26
2023-01-13T10:51:21.694Z,985.22
2023-01-13T10:52:21.725Z,985.26
2023-01-13T10:53:21.678Z,985.24
2023-01-13T10:54:21.668Z,985.18
2023-01-13T10:55:21.686Z,985.23
2023-01-13T10:56:21.693Z,985.15
2023-01-13T10:57:21.647Z,985.27
2023-01-13T10:58:21.645Z,985.20
2023-01-13T10:59:21.628Z,985.22
2023-01-13T11:00:21.650Z,985.23
2023-01-13T11:01:21.754Z,985.23
2023-01-13T11:02:26.430Z,985.29
2023-01-13T11:03:23.606Z,985.27
2023-01-13T11:04:21.631Z,985.33
2023-01-13T11:05:21.619Z,985.31
2023-01-13T11:06:21.579Z,985.23
2023-01-13T11:07:21.578Z,985.27
2023-01-13T11:08:21.598Z,985.32
2023-01-13T11:09:21.556Z,985.27
2023-01-13T11:10:21.575Z,985.29
2023-01-13T11:11:21.536Z,985.28
2023-01-13T11:12:21.529Z,985.27
2023-01-13T11:13:21.528Z,985.21
2023-01-13T11:14:21.527Z,985.29
2023-01-13T11:15:21.549Z,985.31
2023-01-13T11:16:21.529Z,985.25
2023-01-13T11:17:21.497Z,985.28
2023-01-13T11:18:21.498Z,985.33
2023-01-13T11:19:21.480Z,985.33
2023-01-13T11:20:21.510Z,985.19
2023-01-13T11:21:21.461Z,985.20
2023-01-13T11:22:21.470Z,985.32
2023-01-13T11:23:21.445Z,985.38
2023-01-13T11:24:21.436Z,985.27
2023-01-13T11:25:21.436Z,985.29
2023-01-13T11:26:21.460Z,985.38
2023-01-13T11:27:21.426Z,985.40
2023-01-13T11:28:21.411Z,985.38
2023-01-13T11:29:21.399Z,985.40
2023-01-13T11:30:21.388Z,985.35
2023-01-13T11:31:21.440Z,985.34
2023-01-13T11:32:21.403Z,985.43
2023-01-13T11:33:21.380Z,985.34
2023-01-13T11:34:21.440Z,985.31
2023-01-13T11:35:21.353Z,985.28
2023-01-13T11:36:21.367Z,985.29
2023-01-13T11:37:21.355Z,985.25
2023-01-13T11:38:21.349Z,985.19
2023-01-13T11:39:21.349Z,985.19
2023-01-13T11:40:21.311Z,985.15
2023-01-13T11:41:21.340Z,985.17
2023-01-13T11:42:21.299Z,985.25
2023-01-13T11:43:21.296Z,985.31
2023-01-13T11:44:21.302Z,985.21
2023-01-13T11:45:21.273Z,985.30
2023-01-13T11:46:21.399Z,985.22
2023-01-13T11:47:21.257Z,985.22
2023-01-13T11:48:21.259Z,985.29
2023-01-13T11:49:22.374Z,985.28
2023-01-13T11:50:22.240Z,985.30
2023-01-13T11:51:21.257Z,985.30
2023-01-13T11:52:21.220Z,985.25
2023-01-13T11:53:21.220Z,985.30
2023-01-13T11:54:21.210Z,985.15
2023-01-13T11:55:22.611Z,985.24
2023-01-13T11:56:22.223Z,985.24
2023-01-13T11:57:21.189Z,985.21
2023-01-13T11:58:21.173Z,985.15
2023-01-13T11:59:21.171Z,985.20
2023-01-13T12:00:21.164Z,985.21
2023-01-13T12:01:23.275Z,985.24
2023-01-13T12:02:22.198Z,985.25
2023-01-13T12:03:21.256Z,985.20
2023-01-13T12:04:21.140Z,985.12
2023-01-13T12:05:21.121Z,985.15
2023-01-13T12:06:21.135Z,985.18
2023-01-13T12:07:23.195Z,985.18
2023-01-13T12:08:22.095Z,985.22
2023-01-13T12:09:21.096Z,985.20
2023-01-13T12:10:21.084Z,985.04
2023-01-13T12:11:21.101Z,985.14
2023-01-13T12:12:21.067Z,985.08
2023-01-13T12:13:21.058Z,985.15
2023-01-13T12:14:21.055Z,985.11
2023-01-13T12:15:21.036Z,985.08
2023-01-13T12:16:21.057Z,985.09
2023-01-13T12:17:21.043Z,985.05
2023-01-13T12:18:22.023Z,985.07
2023-01-13T12:19:21.023Z,985.07
2023-01-13T12:20:21.023Z,985.12
2023-01-13T12:21:20.993Z,985.14
2023-01-13T12:22:21.027Z,985.12
2023-01-13T12:23:20.978Z,985.06
2023-01-13T12:24:20.971Z,985.10
2023-01-13T12:25:20.964Z,985.09
2023-01-13T12:26:20.957Z,985.09
2023-01-13T12:27:20.987Z,985.16
2023-01-13T12:28:21.075Z,985.08